Time;durP1;ratioP1;P1;durP2;ratioP2;P2;SDS_P1;SDS_P2;PMS_P1;PMS_P2;Temp;Humidity;BMP_temperature;BMP_pressure;BME280_temperature;BME280_humidity;BME280_pressure;Samples;Min_cycle;Max_cycle;Signal;HPM_P1;HPM_P2
2023/12/30 00:00:09;;;;;;;8.18;2.90;;;7.20;99.90;;;;;;5046425;28;20211;-83
2023/12/30 00:02:50;;;;;;;7.32;2.97;;;7.30;99.90;;;;;;5051207;28;20199;-82
2023/12/30 00:05:18;;;;;;;4.25;3.22;;;7.30;99.90;;;;;;5048336;28;20198;-83
2023/12/30 00:07:46;;;;;;;12.05;3.55;;;7.30;99.90;;;;;;5045802;28;20523;-83
2023/12/30 00:10:14;;;;;;;8.90;3.50;;;7.40;99.90;;;;;;5039126;28;20224;-84
2023/12/30 00:12:41;;;;;;;3.63;3.13;;;7.40;99.90;;;;;;5042866;28;20220;-84
2023/12/30 00:15:09;;;;;;;9.90;2.95;;;7.40;99.90;;;;;;5037460;28;20208;-82
2023/12/30 00:17:36;;;;;;;7.97;2.60;;;7.40;99.90;;;;;;5042162;28;20212;-82
2023/12/30 00:20:04;;;;;;;9.68;3.00;;;7.40;99.90;;;;;;5046132;28;20363;-84
2023/12/30 00:22:31;;;;;;;4.75;4.15;;;7.40;99.90;;;;;;5048727;28;20224;-83
2023/12/30 00:25:00;;;;;;;4.55;2.25;;;7.40;99.90;;;;;;5043504;28;20212;-83
2023/12/30 00:27:27;;;;;;;9.13;2.85;;;7.40;99.90;;;;;;5038573;28;20193;-82
2023/12/30 00:29:55;;;;;;;6.28;1.92;;;7.50;99.90;;;;;;5044480;28;20240;-83
2023/12/30 00:32:22;;;;;;;3.55;1.70;;;7.60;99.90;;;;;;5044643;28;20224;-82
2023/12/30 00:34:54;;;;;;;2.78;1.70;;;7.70;99.90;;;;;;5038733;28;20208;-83
2023/12/30 00:37:23;;;;;;;6.93;1.95;;;7.70;99.90;;;;;;5043741;28;20200;-82
2023/12/30 00:39:53;;;;;;;9.60;2.72;;;7.70;99.90;;;;;;5038436;28;20212;-82
2023/12/30 00:42:24;;;;;;;7.10;3.53;;;7.60;99.90;;;;;;5043231;28;20243;-85
2023/12/30 00:44:51;;;;;;;7.70;3.20;;;7.60;99.90;;;;;;5048721;28;20302;-83
2023/12/30 00:47:20;;;;;;;2.75;2.55;;;7.40;99.90;;;;;;5042416;28;20216;-84
2023/12/30 00:49:47;;;;;;;5.65;3.10;;;7.50;99.90;;;;;;5043771;28;20225;-83
2023/12/30 00:52:15;;;;;;;8.85;4.45;;;7.50;99.90;;;;;;5049485;28;20243;-83
2023/12/30 00:54:43;;;;;;;6.50;3.30;;;7.50;99.90;;;;;;5052522;28;20836;-84
2023/12/30 00:57:10;;;;;;;6.65;3.47;;;7.40;99.90;;;;;;5048168;28;20196;-83
2023/12/30 00:59:39;;;;;;;9.05;6.05;;;7.50;99.90;;;;;;5047112;28;20276;-84
2023/12/30 01:02:06;;;;;;;5.88;3.55;;;7.50;99.90;;;;;;5047249;28;20334;-85
2023/12/30 01:04:33;;;;;;;7.78;3.65;;;7.50;99.90;;;;;;5044104;28;20208;-84
2023/12/30 01:07:01;;;;;;;4.28;3.03;;;7.50;99.90;;;;;;5037700;28;20485;-84
2023/12/30 01:09:30;;;;;;;4.68;3.30;;;7.60;99.90;;;;;;5043609;28;20216;-83
2023/12/30 01:11:59;;;;;;;9.77;3.28;;;7.60;99.90;;;;;;5041666;28;20247;-84
2023/12/30 01:14:31;;;;;;;5.82;3.47;;;7.60;99.90;;;;;;5044499;28;20204;-84
2023/12/30 01:17:01;;;;;;;8.20;2.92;;;7.60;99.90;;;;;;5044981;28;20771;-83
2023/12/30 01:19:28;;;;;;;8.00;3.40;;;7.60;99.90;;;;;;5046281;28;20660;-83
2023/12/30 01:21:55;;;;;;;7.07;3.22;;;7.60;99.90;;;;;;5053380;28;20232;-82
2023/12/30 01:24:23;;;;;;;6.75;3.42;;;7.60;99.90;;;;;;5055982;28;20220;-82
2023/12/30 01:26:55;;;;;;;5.75;3.38;;;7.60;99.90;;;;;;5046002;28;20209;-83
2023/12/30 01:29:23;;;;;;;4.10;2.45;;;7.60;99.90;;;;;;5046180;28;20236;-82
2023/12/30 01:31:56;;;;;;;7.13;3.40;;;7.50;99.90;;;;;;5047027;28;20233;-84
2023/12/30 01:34:25;;;;;;;4.05;2.28;;;7.60;99.90;;;;;;5038125;28;20205;-83
2023/12/30 01:36:54;;;;;;;9.00;3.25;;;7.40;99.90;;;;;;5041129;28;20669;-84
2023/12/30 01:39:21;;;;;;;6.05;2.00;;;7.50;99.90;;;;;;5040141;28;20211;-83
2023/12/30 01:41:51;;;;;;;4.18;2.00;;;7.50;99.90;;;;;;5041645;28;20232;-82
2023/12/30 01:44:19;;;;;;;5.15;2.95;;;7.60;99.90;;;;;;5046660;28;20204;-83
2023/12/30 01:46:49;;;;;;;7.57;2.00;;;7.60;99.90;;;;;;5049010;28;20260;-82
2023/12/30 01:49:19;;;;;;;7.68;2.35;;;7.50;99.90;;;;;;5050958;28;20205;-82
2023/12/30 01:51:49;;;;;;;5.70;2.03;;;7.60;99.90;;;;;;5052175;28;20231;-83
2023/12/30 01:54:21;;;;;;;5.00;2.22;;;7.50;99.90;;;;;;5048250;28;20232;-83
2023/12/30 01:56:50;;;;;;;4.45;1.60;;;7.50;99.90;;;;;;5048517;28;20200;-83
2023/12/30 01:59:19;;;;;;;6.85;2.92;;;7.50;99.90;;;;;;5058299;28;20195;-82
2023/12/30 02:01:47;;;;;;;12.95;2.50;;;7.40;99.90;;;;;;5057333;28;20212;-82
2023/12/30 02:04:14;;;;;;;3.88;2.10;;;7.40;99.90;;;;;;5063330;28;20212;-83
2023/12/30 02:06:45;;;;;;;3.53;1.95;;;7.40;99.90;;;;;;5056353;28;20258;-82
2023/12/30 02:09:14;;;;;;;9.05;3.13;;;7.40;99.90;;;;;;5066455;28;20268;-83
2023/12/30 02:11:42;;;;;;;6.00;2.03;;;7.30;99.90;;;;;;5048317;28;20651;-83
2023/12/30 02:14:23;;;;;;;8.48;2.65;;;7.30;99.90;;;;;;5046960;28;20235;-83
2023/12/30 02:16:52;;;;;;;6.45;2.90;;;7.30;99.90;;;;;;5053033;28;20352;-83
2023/12/30 02:19:20;;;;;;;8.82;2.28;;;7.30;99.90;;;;;;5045658;28;20200;-83
2023/12/30 02:21:48;;;;;;;8.15;3.55;;;7.20;99.90;;;;;;5046944;28;20232;-83
2023/12/30 02:24:17;;;;;;;11.05;3.25;;;7.20;99.90;;;;;;5040531;28;20201;-82
2023/12/30 02:26:48;;;;;;;5.78;2.60;;;7.20;99.90;;;;;;5049016;28;20260;-82
2023/12/30 02:29:15;;;;;;;5.70;3.10;;;7.20;99.90;;;;;;5053258;28;20341;-84
2023/12/30 02:31:48;;;;;;;11.15;3.85;;;7.20;99.90;;;;;;5039422;28;20657;-84
2023/12/30 02:34:17;;;;;;;9.10;2.40;;;7.20;99.90;;;;;;5046763;28;20209;-83
2023/12/30 02:36:46;;;;;;;4.35;2.20;;;7.20;99.90;;;;;;5046803;28;20251;-84
2023/12/30 02:39:14;;;;;;;4.85;2.35;;;7.20;99.90;;;;;;5051503;28;20220;-84
2023/12/30 02:41:45;;;;;;;7.65;3.33;;;7.20;99.90;;;;;;5046770;28;20225;-83
2023/12/30 02:44:18;;;;;;;4.22;2.30;;;7.30;99.90;;;;;;5053304;28;20211;-84
2023/12/30 02:46:45;;;;;;;5.53;2.20;;;7.30;99.90;;;;;;5045260;28;20208;-82
2023/12/30 02:49:12;;;;;;;6.75;2.13;;;7.30;99.90;;;;;;5052129;28;20434;-83
2023/12/30 02:51:40;;;;;;;11.27;3.13;;;7.30;99.90;;;;;;5045745;28;20643;-83
2023/12/30 02:54:07;;;;;;;5.85;2.25;;;7.30;99.90;;;;;;5043571;28;20215;-84
2023/12/30 02:56:34;;;;;;;3.38;1.35;;;7.30;99.90;;;;;;5044619;28;20235;-84
2023/12/30 02:59:03;;;;;;;7.38;2.05;;;7.30;99.90;;;;;;5046900;28;20211;-83
2023/12/30 03:01:33;;;;;;;12.52;2.00;;;7.30;99.90;;;;;;5055518;28;20224;-83
2023/12/30 03:04:01;;;;;;;5.28;1.83;;;7.30;99.90;;;;;;5058991;28;20233;-83
2023/12/30 03:06:29;;;;;;;4.65;1.70;;;7.30;99.90;;;;;;5050674;28;20252;-82
2023/12/30 03:08:56;;;;;;;8.45;1.73;;;7.20;99.90;;;;;;5052476;28;20211;-83
2023/12/30 03:11:23;;;;;;;10.90;1.40;;;7.20;99.90;;;;;;5047715;28;20243;-82
2023/12/30 03:13:52;;;;;;;6.32;1.40;;;7.30;99.90;;;;;;5030999;28;20196;-84
2023/12/30 03:16:21;;;;;;;7.93;1.80;;;7.20;99.90;;;;;;5040576;28;20228;-83
2023/12/30 03:18:48;;;;;;;11.02;2.13;;;7.10;99.90;;;;;;5054578;28;20276;-83
2023/12/30 03:21:18;;;;;;;6.65;1.65;;;7.10;99.90;;;;;;5050277;28;20220;-83
2023/12/30 03:23:47;;;;;;;4.75;2.30;;;7.10;99.90;;;;;;5050283;28;20208;-83
2023/12/30 03:26:17;;;;;;;5.15;1.90;;;7.10;99.90;;;;;;5052186;28;20209;-83
2023/12/30 03:28:44;;;;;;;9.45;1.70;;;7.00;99.90;;;;;;5051958;28;20201;-83
2023/12/30 03:31:22;;;;;;;5.50;1.92;;;6.90;99.90;;;;;;5050809;28;20224;-84
2023/12/30 03:33:50;;;;;;;7.00;1.67;;;7.10;99.90;;;;;;5049837;28;20258;-82
2023/12/30 03:36:17;;;;;;;6.80;1.83;;;7.10;99.90;;;;;;5046732;28;20205;-83
2023/12/30 03:38:45;;;;;;;5.88;1.75;;;7.00;99.90;;;;;;5052987;28;20677;-85
2023/12/30 03:41:13;;;;;;;8.52;2.55;;;7.00;99.90;;;;;;5043374;28;20296;-84
2023/12/30 03:43:43;;;;;;;7.70;2.15;;;6.90;99.90;;;;;;5040499;28;20228;-84
2023/12/30 03:46:11;;;;;;;6.05;3.80;;;7.10;99.90;;;;;;5045125;28;20215;-83
2023/12/30 03:48:39;;;;;;;15.30;3.35;;;7.20;99.90;;;;;;5053083;28;20220;-82
2023/12/30 03:51:07;;;;;;;4.35;1.35;;;7.20;99.90;;;;;;5047363;28;20248;-84
2023/12/30 03:53:34;;;;;;;7.22;1.80;;;7.30;99.90;;;;;;5039891;28;20205;-83
2023/12/30 03:56:09;;;;;;;4.03;1.40;;;7.10;99.90;;;;;;5047856;28;20197;-81
2023/12/30 03:58:36;;;;;;;8.45;1.45;;;7.30;99.90;;;;;;5050487;28;20208;-83
2023/12/30 04:01:05;;;;;;;3.05;1.85;;;7.30;99.90;;;;;;5055520;28;20224;-83
2023/12/30 04:03:33;;;;;;;3.92;1.63;;;7.30;99.90;;;;;;5046980;28;20208;-83
2023/12/30 04:06:02;;;;;;;6.07;3.63;;;7.30;99.90;;;;;;5045685;28;20276;-83
2023/12/30 04:08:29;;;;;;;15.85;1.95;;;7.40;99.90;;;;;;5039180;28;20215;-82
2023/12/30 04:10:58;;;;;;;4.45;1.52;;;7.30;99.90;;;;;;5041706;28;20252;-84
2023/12/30 04:13:26;;;;;;;3.60;2.10;;;7.30;99.90;;;;;;5042072;28;20235;-83
2023/12/30 04:15:53;;;;;;;4.80;2.10;;;7.30;99.90;;;;;;5047002;28;20201;-83
2023/12/30 04:18:22;;;;;;;11.65;1.60;;;7.30;99.90;;;;;;5045282;28;20223;-84
2023/12/30 04:20:50;;;;;;;11.40;2.03;;;7.40;99.90;;;;;;5050837;28;20220;-83
2023/12/30 04:23:18;;;;;;;8.02;1.50;;;7.40;99.90;;;;;;5044164;28;20237;-83
2023/12/30 04:25:46;;;;;;;12.95;3.40;;;7.40;99.90;;;;;;5045253;28;20260;-83
2023/12/30 04:28:16;;;;;;;9.68;2.90;;;7.40;99.90;;;;;;5041947;28;20211;-83
2023/12/30 04:30:47;;;;;;;5.90;2.28;;;7.20;99.90;;;;;;5046679;28;20228;-83
2023/12/30 04:33:14;;;;;;;3.63;1.35;;;7.40;99.90;;;;;;5049433;28;20243;-83
2023/12/30 04:35:45;;;;;;;8.02;1.88;;;7.50;99.90;;;;;;5051338;28;20209;-83
2023/12/30 04:38:12;;;;;;;6.05;1.90;;;7.40;99.90;;;;;;5048520;28;20208;-83
2023/12/30 04:40:48;;;;;;;6.25;1.90;;;7.50;99.90;;;;;;5036646;28;20239;-84
2023/12/30 04:43:15;;;;;;;3.45;2.25;;;7.50;99.90;;;;;;5040850;28;20201;-83
2023/12/30 04:45:44;;;;;;;5.88;1.42;;;7.50;99.90;;;;;;5043544;28;20212;-82
2023/12/30 04:48:12;;;;;;;7.70;1.88;;;7.50;99.90;;;;;;5054147;28;20296;-82
2023/12/30 04:50:40;;;;;;;24.70;3.20;;;7.60;99.90;;;;;;5052521;28;20239;-83
2023/12/30 04:53:07;;;;;;;7.07;2.33;;;7.60;99.90;;;;;;5043514;28;20235;-83
2023/12/30 04:55:34;;;;;;;5.68;1.95;;;7.50;99.90;;;;;;5048820;28;20209;-83
2023/12/30 04:58:04;;;;;;;6.03;1.67;;;7.50;99.90;;;;;;5052653;28;20212;-82
2023/12/30 05:00:33;;;;;;;6.75;2.00;;;7.50;99.90;;;;;;5050178;28;20225;-83
2023/12/30 05:03:02;;;;;;;8.95;1.63;;;7.50;99.90;;;;;;5047067;28;20228;-84
2023/12/30 05:05:29;;;;;;;6.25;2.45;;;7.50;99.90;;;;;;5048552;28;20211;-83
2023/12/30 05:07:56;;;;;;;9.52;2.33;;;7.70;99.90;;;;;;5049780;28;20216;-84
2023/12/30 05:10:25;;;;;;;9.50;1.63;;;7.50;99.90;;;;;;5057800;28;20204;-83
2023/12/30 05:12:52;;;;;;;5.13;1.77;;;7.50;99.90;;;;;;5054015;28;20204;-83
2023/12/30 05:15:21;;;;;;;6.85;1.77;;;7.50;99.90;;;;;;5049018;28;20285;-83
2023/12/30 05:17:49;;;;;;;6.07;1.65;;;7.50;99.90;;;;;;5050936;28;20212;-83
2023/12/30 05:20:17;;;;;;;8.48;2.00;;;7.50;99.90;;;;;;5054336;28;20201;-83
2023/12/30 05:22:45;;;;;;;16.60;2.40;;;7.50;99.90;;;;;;5050598;28;20663;-82
2023/12/30 05:25:13;;;;;;;6.25;1.60;;;7.50;99.90;;;;;;5056527;28;20234;-83
2023/12/30 05:27:40;;;;;;;7.57;2.63;;;7.50;99.90;;;;;;5060121;28;20284;-84
2023/12/30 05:30:10;;;;;;;5.43;1.60;;;7.50;99.90;;;;;;5059316;28;20201;-83
2023/12/30 05:32:41;;;;;;;4.78;2.00;;;7.50;99.90;;;;;;5059071;28;20208;-83
2023/12/30 05:35:09;;;;;;;8.93;3.28;;;7.50;99.90;;;;;;5058526;28;20205;-83
2023/12/30 05:37:36;;;;;;;7.95;1.75;;;7.40;99.90;;;;;;5059439;28;20188;-82
2023/12/30 05:40:06;;;;;;;3.47;2.22;;;7.40;99.90;;;;;;5061990;28;20189;-83
2023/12/30 05:42:34;;;;;;;7.43;1.75;;;7.30;99.90;;;;;;5052244;28;20208;-83
2023/12/30 05:45:02;;;;;;;7.70;2.15;;;7.30;99.90;;;;;;5057621;28;20235;-81
2023/12/30 05:47:29;;;;;;;9.55;2.10;;;7.20;99.90;;;;;;5055958;28;20280;-82
2023/12/30 05:49:57;;;;;;;6.93;1.75;;;7.20;99.90;;;;;;5055014;28;20206;-82
2023/12/30 05:52:24;;;;;;;7.85;1.83;;;7.20;99.90;;;;;;5054541;28;20228;-83
2023/12/30 05:54:52;;;;;;;10.68;2.17;;;7.10;99.90;;;;;;5049666;28;20217;-84
2023/12/30 05:57:19;;;;;;;4.53;2.00;;;7.10;99.90;;;;;;5048663;28;20204;-83
2023/12/30 05:59:46;;;;;;;5.00;2.75;;;7.10;99.90;;;;;;5044489;28;20203;-82
2023/12/30 06:02:13;;;;;;;8.63;2.67;;;7.10;99.90;;;;;;5059245;28;20207;-83
2023/12/30 06:04:42;;;;;;;3.78;1.52;;;7.10;99.90;;;;;;5059929;28;20228;-82
2023/12/30 06:07:10;;;;;;;5.68;1.65;;;7.10;99.90;;;;;;5056100;28;20214;-82
2023/12/30 06:09:38;;;;;;;8.95;3.00;;;7.00;99.90;;;;;;5057879;28;20207;-83
2023/12/30 06:12:05;;;;;;;3.90;1.38;;;7.00;99.90;;;;;;5049501;28;20220;-82
2023/12/30 06:14:36;;;;;;;12.38;2.20;;;7.00;99.90;;;;;;5049688;28;20205;-83
2023/12/30 06:17:03;;;;;;;10.88;2.83;;;7.00;99.90;;;;;;5046135;28;20227;-83
2023/12/30 06:19:32;;;;;;;7.20;3.10;;;7.00;99.90;;;;;;5055847;28;20205;-84
2023/12/30 06:22:02;;;;;;;5.40;1.83;;;6.90;99.90;;;;;;5051945;28;20247;-82
2023/12/30 06:24:31;;;;;;;11.18;2.00;;;6.90;99.90;;;;;;5058047;28;20200;-84
2023/12/30 06:26:58;;;;;;;8.35;2.40;;;7.00;99.90;;;;;;5053491;28;20217;-84
2023/12/30 06:29:26;;;;;;;7.88;1.75;;;7.00;99.90;;;;;;5056151;28;20589;-84
2023/12/30 06:31:54;;;;;;;17.85;2.20;;;7.00;99.90;;;;;;5053101;28;20254;-83
2023/12/30 06:34:21;;;;;;;9.10;2.53;;;7.10;99.90;;;;;;5050842;28;20208;-83
2023/12/30 06:36:48;;;;;;;9.48;2.58;;;7.00;99.90;;;;;;5055544;28;20212;-82
2023/12/30 06:39:17;;;;;;;5.22;1.80;;;7.00;99.90;;;;;;5052226;28;20201;-83
2023/12/30 06:41:45;;;;;;;8.07;1.80;;;6.90;99.90;;;;;;5052935;28;20209;-83
2023/12/30 06:44:13;;;;;;;6.78;1.95;;;6.90;99.90;;;;;;5053518;28;20188;-83
2023/12/30 06:46:42;;;;;;;7.10;1.63;;;6.90;99.90;;;;;;5055794;28;20209;-82
2023/12/30 06:49:12;;;;;;;4.43;1.95;;;6.90;99.90;;;;;;5057202;28;20220;-82
2023/12/30 06:51:40;;;;;;;10.48;2.70;;;6.90;99.90;;;;;;5062208;28;20710;-82
2023/12/30 06:54:07;;;;;;;6.30;1.80;;;6.80;99.90;;;;;;5056376;28;20201;-82
2023/12/30 06:56:35;;;;;;;6.13;2.08;;;6.80;99.90;;;;;;5051490;28;20201;-83
2023/12/30 06:59:03;;;;;;;10.32;3.15;;;6.80;99.90;;;;;;5045785;28;20210;-83
2023/12/30 07:01:30;;;;;;;7.20;1.90;;;6.80;99.90;;;;;;5046637;28;20226;-84
2023/12/30 07:03:57;;;;;;;6.90;1.65;;;6.60;99.90;;;;;;5037114;28;20219;-82
2023/12/30 07:06:25;;;;;;;4.68;1.70;;;6.70;99.90;;;;;;5049477;28;20601;-82
2023/12/30 07:08:52;;;;;;;12.00;3.15;;;6.70;99.90;;;;;;5053929;28;20204;-83
2023/12/30 07:11:19;;;;;;;8.38;1.83;;;6.70;99.90;;;;;;5046930;28;20232;-83
2023/12/30 07:13:47;;;;;;;13.13;2.35;;;6.70;99.90;;;;;;5054317;28;20204;-83
2023/12/30 07:16:17;;;;;;;10.43;2.95;;;6.70;99.90;;;;;;5051142;28;20213;-83
2023/12/30 07:18:44;;;;;;;6.05;1.55;;;6.70;99.90;;;;;;5062491;28;20286;-82
2023/12/30 07:21:11;;;;;;;13.68;2.90;;;6.70;99.90;;;;;;5056851;28;20285;-82
2023/12/30 07:23:39;;;;;;;8.13;2.33;;;6.70;99.90;;;;;;5054457;28;20205;-83
2023/12/30 07:26:07;;;;;;;15.35;2.67;;;6.80;99.90;;;;;;5058005;28;20274;-81
2023/12/30 07:28:35;;;;;;;7.70;2.50;;;6.70;99.90;;;;;;5057814;28;20274;-82
2023/12/30 07:31:03;;;;;;;8.25;2.22;;;6.70;99.90;;;;;;5048453;28;20240;-82
2023/12/30 07:33:32;;;;;;;8.07;2.50;;;6.70;99.90;;;;;;5053136;28;20200;-83
2023/12/30 07:36:01;;;;;;;12.43;3.97;;;6.70;99.90;;;;;;5052512;28;20208;-82
2023/12/30 07:38:29;;;;;;;11.73;2.05;;;6.70;99.90;;;;;;5052601;28;20248;-82
2023/12/30 07:40:56;;;;;;;15.93;2.75;;;6.70;99.90;;;;;;5051673;28;20232;-83
2023/12/30 07:43:24;;;;;;;4.45;1.63;;;6.80;99.90;;;;;;5049276;28;20200;-82
2023/12/30 07:45:51;;;;;;;5.43;2.65;;;6.90;99.90;;;;;;5054828;28;20204;-82
2023/12/30 07:48:19;;;;;;;13.52;2.75;;;6.80;99.90;;;;;;5054678;28;20227;-82
2023/12/30 07:50:47;;;;;;;6.95;2.13;;;6.80;99.90;;;;;;5048735;28;20251;-82
2023/12/30 07:53:14;;;;;;;10.45;2.78;;;6.80;99.90;;;;;;5042704;28;20204;-84
2023/12/30 07:55:43;;;;;;;7.65;2.75;;;6.90;99.90;;;;;;5056588;28;20201;-82
2023/12/30 07:58:10;;;;;;;12.90;3.25;;;7.00;99.90;;;;;;5051756;28;20205;-83
2023/12/30 08:00:39;;;;;;;6.25;2.00;;;6.90;99.90;;;;;;5042266;28;20292;-84
2023/12/30 08:03:06;;;;;;;10.23;2.17;;;7.10;99.90;;;;;;5044931;28;20680;-83
2023/12/30 08:05:34;;;;;;;5.55;2.47;;;7.20;99.90;;;;;;5044571;28;20209;-82
2023/12/30 08:08:03;;;;;;;6.70;2.00;;;7.20;99.90;;;;;;5042080;28;20268;-83
2023/12/30 08:10:32;;;;;;;12.63;1.98;;;7.30;99.90;;;;;;5046777;28;20231;-84
2023/12/30 08:12:59;;;;;;;16.42;2.70;;;7.30;99.90;;;;;;5044920;28;20399;-82
2023/12/30 08:15:28;;;;;;;7.85;2.47;;;7.40;99.90;;;;;;5045679;28;20204;-83
2023/12/30 08:17:55;;;;;;;18.48;2.22;;;7.40;99.90;;;;;;5045409;28;20201;-83
2023/12/30 08:20:22;;;;;;;4.97;1.77;;;7.40;99.90;;;;;;5058086;28;20198;-82
2023/12/30 08:22:54;;;;;;;15.82;2.80;;;7.50;99.90;;;;;;5048800;28;20208;-82
2023/12/30 08:25:24;;;;;;;4.15;1.55;;;7.50;99.90;;;;;;5056265;28;20251;-82
2023/12/30 08:27:51;;;;;;;7.43;2.33;;;7.50;99.90;;;;;;5051300;28;20203;-83
2023/12/30 08:30:18;;;;;;;14.52;2.30;;;7.60;99.90;;;;;;5048087;28;20200;-82
2023/12/30 08:32:45;;;;;;;9.48;1.98;;;7.60;99.90;;;;;;5053664;28;20259;-83
2023/12/30 08:35:15;;;;;;;11.68;2.45;;;7.60;99.90;;;;;;5054270;28;20204;-82
2023/12/30 08:37:43;;;;;;;5.22;1.95;;;7.50;99.90;;;;;;5056016;28;20204;-83
2023/12/30 08:40:11;;;;;;;3.50;2.00;;;7.60;99.90;;;;;;5056540;28;20209;-82
2023/12/30 08:42:44;;;;;;;8.10;1.55;;;7.60;99.90;;;;;;5046208;28;20209;-83
2023/12/30 08:45:18;;;;;;;8.73;2.10;;;7.70;99.90;;;;;;5050176;28;20185;-84
2023/12/30 08:47:46;;;;;;;6.80;2.10;;;7.70;99.90;;;;;;5055648;28;20247;-83
2023/12/30 08:50:14;;;;;;;7.70;2.38;;;7.70;99.90;;;;;;5060816;28;20316;-83
2023/12/30 08:52:41;;;;;;;11.23;1.67;;;7.80;99.90;;;;;;5060482;28;20225;-83
2023/12/30 08:55:11;;;;;;;7.80;2.45;;;7.90;99.90;;;;;;5049028;28;20193;-82
2023/12/30 08:57:38;;;;;;;10.25;2.35;;;7.80;99.90;;;;;;5058839;28;20189;-84
2023/12/30 09:00:09;;;;;;;10.15;2.53;;;7.80;99.90;;;;;;5050285;28;20459;-84
2023/12/30 09:02:37;;;;;;;8.93;2.30;;;7.80;99.90;;;;;;5056707;28;20243;-83
2023/12/30 09:05:06;;;;;;;8.88;1.90;;;7.80;99.90;;;;;;5063028;28;20208;-83
2023/12/30 09:07:35;;;;;;;14.48;2.95;;;7.90;99.90;;;;;;5057541;28;20196;-82
2023/12/30 09:10:04;;;;;;;16.58;2.80;;;7.90;99.90;;;;;;5059378;28;20209;-84
2023/12/30 09:12:31;;;;;;;11.15;1.80;;;7.90;99.90;;;;;;5058898;28;20263;-84
2023/12/30 09:14:59;;;;;;;7.72;2.65;;;7.90;99.90;;;;;;5060955;28;20177;-81
2023/12/30 09:17:28;;;;;;;8.52;2.08;;;7.90;99.90;;;;;;5057721;28;20242;-83
2023/12/30 09:19:56;;;;;;;12.70;2.78;;;8.00;99.90;;;;;;5057589;28;20205;-83
2023/12/30 09:22:26;;;;;;;11.15;2.90;;;8.00;99.90;;;;;;5052866;28;20204;-82
2023/12/30 09:24:54;;;;;;;7.22;2.28;;;8.00;99.90;;;;;;5059502;28;20196;-84
2023/12/30 09:27:24;;;;;;;6.40;1.65;;;8.10;99.90;;;;;;5055580;28;20189;-82
2023/12/30 09:29:51;;;;;;;9.68;2.88;;;8.10;99.90;;;;;;5059254;28;20199;-82
2023/12/30 09:32:22;;;;;;;4.70;2.13;;;8.10;99.90;;;;;;5059084;28;20240;-81
2023/12/30 09:34:51;;;;;;;6.25;2.83;;;8.00;99.90;;;;;;5057296;28;20205;-82
2023/12/30 09:37:19;;;;;;;8.07;2.58;;;8.00;99.90;;;;;;5063311;28;20229;-83
2023/12/30 09:39:51;;;;;;;8.45;1.98;;;8.00;99.90;;;;;;5060005;28;20207;-83
2023/12/30 09:42:31;;;;;;;12.25;3.45;;;7.90;99.90;;;;;;5061570;28;20228;-83
2023/12/30 09:45:02;;;;;;;12.05;2.42;;;8.20;99.90;;;;;;5057049;28;20197;-83
2023/12/30 09:47:30;;;;;;;9.75;2.40;;;7.90;99.90;;;;;;5054943;28;20216;-82
2023/12/30 09:49:59;;;;;;;9.88;3.85;;;8.10;99.90;;;;;;5055417;28;20200;-83
2023/12/30 09:52:29;;;;;;;8.27;2.47;;;8.20;99.90;;;;;;5056110;28;20225;-83
2023/12/30 09:55:00;;;;;;;16.73;2.92;;;8.20;99.90;;;;;;5053434;28;20209;-85
2023/12/30 09:57:31;;;;;;;10.75;3.10;;;8.30;99.90;;;;;;5056430;28;20221;-84
2023/12/30 10:00:05;;;;;;;8.25;2.30;;;8.30;99.90;;;;;;5052480;28;20200;-83
2023/12/30 10:02:37;;;;;;;13.27;4.70;;;8.30;99.90;;;;;;5057600;28;20252;-84
2023/12/30 10:05:11;;;;;;;8.40;2.67;;;8.40;99.90;;;;;;5049837;28;20221;-83
2023/12/30 10:07:41;;;;;;;8.60;3.08;;;8.40;99.90;;;;;;5051448;28;20219;-84
2023/12/30 10:10:13;;;;;;;12.15;2.65;;;8.40;99.90;;;;;;5048751;28;20197;-83
2023/12/30 10:12:45;;;;;;;11.32;2.72;;;8.30;99.90;;;;;;5048813;28;20240;-84
2023/12/30 10:15:20;;;;;;;13.85;2.90;;;8.30;99.90;;;;;;5050946;28;20204;-84
2023/12/30 10:17:51;;;;;;;8.52;2.97;;;8.50;99.90;;;;;;5049441;28;20204;-83
2023/12/30 10:20:23;;;;;;;13.23;3.47;;;8.50;99.90;;;;;;5054060;28;20228;-82
2023/12/30 10:22:51;;;;;;;7.03;3.10;;;8.50;99.90;;;;;;5042204;28;20209;-85
2023/12/30 10:25:19;;;;;;;16.35;2.58;;;8.60;99.90;;;;;;5048920;28;20197;-83
2023/12/30 10:27:48;;;;;;;12.05;2.70;;;8.50;99.90;;;;;;5057074;28;20212;-83
2023/12/30 10:30:19;;;;;;;4.65;1.90;;;8.40;99.90;;;;;;5051064;28;20184;-84
2023/12/30 10:32:47;;;;;;;6.90;2.20;;;8.30;99.90;;;;;;5057773;28;20237;-82
2023/12/30 10:35:14;;;;;;;12.38;2.60;;;8.30;99.90;;;;;;5058701;28;20189;-83
2023/12/30 10:37:44;;;;;;;6.20;1.98;;;8.40;99.90;;;;;;5057332;28;20220;-83
2023/12/30 10:40:12;;;;;;;9.50;2.42;;;8.50;99.90;;;;;;5058553;28;20231;-83
2023/12/30 10:42:41;;;;;;;9.82;2.80;;;8.40;99.90;;;;;;5058150;28;20223;-83
2023/12/30 10:45:12;;;;;;;8.85;2.45;;;8.50;99.90;;;;;;5057936;28;20185;-82
2023/12/30 10:47:41;;;;;;;12.23;2.60;;;8.60;99.90;;;;;;5041844;28;20200;-82
2023/12/30 10:50:11;;;;;;;12.30;2.72;;;8.70;99.90;;;;;;5061597;28;20180;-84
2023/12/30 10:52:51;;;;;;;7.43;2.17;;;8.90;99.90;;;;;;5057453;28;20216;-83
2023/12/30 10:55:18;;;;;;;9.73;2.90;;;9.00;99.90;;;;;;5061193;28;20189;-82
2023/12/30 10:57:58;;;;;;;4.32;2.00;;;9.10;99.90;;;;;;5058374;28;20196;-84
2023/12/30 11:00:29;;;;;;;10.23;2.42;;;8.80;99.90;;;;;;5054773;28;20228;-81
2023/12/30 11:02:57;;;;;;;6.32;2.20;;;9.00;99.90;;;;;;5058701;28;20188;-83
2023/12/30 11:05:32;;;;;;;5.32;4.68;;;8.80;99.90;;;;;;5050260;28;20213;-84
2023/12/30 11:08:04;;;;;;;6.80;2.13;;;9.00;99.90;;;;;;5046349;28;20211;-83
2023/12/30 11:10:35;;;;;;;7.72;3.08;;;9.10;99.90;;;;;;5044672;28;20205;-83
2023/12/30 11:13:07;;;;;;;5.90;2.03;;;9.00;99.90;;;;;;5049492;28;20228;-84
2023/12/30 11:15:38;;;;;;;6.88;2.10;;;8.90;99.90;;;;;;5048010;28;20213;-83
2023/12/30 11:18:06;;;;;;;8.75;2.03;;;9.00;99.90;;;;;;5049492;28;20207;-84
2023/12/30 11:20:35;;;;;;;12.77;2.83;;;9.00;99.90;;;;;;5054932;28;20231;-82
2023/12/30 11:23:05;;;;;;;5.55;2.20;;;9.10;99.90;;;;;;5051625;28;20203;-82
2023/12/30 11:25:44;;;;;;;8.30;2.85;;;9.00;99.90;;;;;;5065461;28;20192;-82
2023/12/30 11:28:22;;;;;;;8.98;2.65;;;9.10;99.90;;;;;;5055879;28;20260;-83
2023/12/30 11:30:58;;;;;;;11.45;3.60;;;9.20;99.90;;;;;;5047487;28;20248;-83
2023/12/30 11:33:26;;;;;;;8.75;2.63;;;9.00;99.90;;;;;;5046811;28;20226;-84
2023/12/30 11:35:55;;;;;;;19.95;3.15;;;9.00;99.90;;;;;;5048951;28;20219;-82
2023/12/30 11:38:34;;;;;;;10.30;2.28;;;8.90;99.90;;;;;;5038859;28;20209;-83
2023/12/30 11:41:07;;;;;;;7.80;3.40;;;9.00;99.90;;;;;;5044587;28;20287;-85
2023/12/30 11:43:35;;;;;;;9.20;2.50;;;8.90;99.90;;;;;;5048787;28;20231;-83
2023/12/30 11:46:04;;;;;;;10.13;4.22;;;8.90;99.90;;;;;;5048354;28;20273;-83
2023/12/30 11:48:37;;;;;;;11.07;3.15;;;8.80;99.90;;;;;;5048071;28;20307;-83
2023/12/30 11:51:08;;;;;;;6.93;2.58;;;8.80;99.90;;;;;;5052237;28;20232;-84
2023/12/30 11:53:39;;;;;;;12.45;2.95;;;8.80;99.90;;;;;;5046491;28;20769;-83
2023/12/30 11:56:07;;;;;;;8.90;4.68;;;8.80;99.90;;;;;;5046822;28;20208;-83
2023/12/30 11:58:48;;;;;;;;;;;;;;;;;;;;;
2023/12/30 12:01:19;;;;;;;7.30;3.15;;;8.80;99.90;;;;;;5056144;28;20248;-83
2023/12/30 12:03:50;;;;;;;10.30;3.30;;;8.80;99.90;;;;;;5037021;28;20205;-85
2023/12/30 12:06:18;;;;;;;6.82;3.28;;;8.80;99.90;;;;;;5052483;28;20231;-82
2023/12/30 12:08:47;;;;;;;7.25;3.38;;;8.80;99.90;;;;;;5059657;28;20215;-84
2023/12/30 12:11:15;;;;;;;10.07;2.63;;;8.90;99.90;;;;;;5055303;28;20259;-82
2023/12/30 12:13:46;;;;;;;6.53;2.90;;;9.10;99.90;;;;;;5053796;28;20227;-84
2023/12/30 12:16:14;;;;;;;10.88;4.97;;;9.00;99.90;;;;;;5053936;28;20204;-81
2023/12/30 12:18:49;;;;;;;5.35;2.63;;;9.00;99.90;;;;;;5055461;28;20193;-84
2023/12/30 12:21:16;;;;;;;13.90;3.90;;;9.10;99.90;;;;;;5057831;28;20227;-83
2023/12/30 12:23:44;;;;;;;6.15;2.72;;;9.00;99.90;;;;;;5051587;28;20197;-83
2023/12/30 12:26:17;;;;;;;18.63;3.58;;;9.00;99.90;;;;;;5045123;28;20210;-84
2023/12/30 12:28:44;;;;;;;7.18;2.85;;;9.10;99.90;;;;;;5048461;28;20205;-84
2023/12/30 12:31:15;;;;;;;8.00;2.88;;;9.20;99.90;;;;;;5048617;28;20248;-84
2023/12/30 12:33:43;;;;;;;11.43;3.17;;;9.20;99.90;;;;;;5048190;28;20240;-84
2023/12/30 12:36:11;;;;;;;13.38;3.00;;;9.30;99.90;;;;;;5045464;28;20264;-85
2023/12/30 12:38:40;;;;;;;6.70;3.00;;;9.40;99.90;;;;;;5045402;28;20200;-84
2023/12/30 12:41:10;;;;;;;8.20;3.00;;;9.40;99.90;;;;;;5047271;28;20251;-86
2023/12/30 12:43:41;;;;;;;5.40;2.60;;;9.20;99.90;;;;;;5040518;28;20263;-84
2023/12/30 12:46:11;;;;;;;10.13;2.63;;;9.30;99.90;;;;;;5044148;28;20200;-82
2023/12/30 12:48:42;;;;;;;7.38;2.83;;;9.30;99.90;;;;;;5054689;28;20283;-84
2023/12/30 12:51:16;;;;;;;8.52;3.20;;;9.20;99.90;;;;;;5033698;28;20224;-84
2023/12/30 12:53:45;;;;;;;8.38;3.72;;;9.10;99.90;;;;;;5057781;28;20283;-83
2023/12/30 12:56:18;;;;;;;11.05;2.70;;;9.30;99.90;;;;;;5060790;28;20209;-85
2023/12/30 12:58:47;;;;;;;9.25;2.58;;;9.20;99.90;;;;;;5049452;28;20217;-84
2023/12/30 13:01:17;;;;;;;8.77;3.30;;;9.20;99.90;;;;;;5050945;28;20312;-83
2023/12/30 13:03:46;;;;;;;9.85;2.90;;;9.30;99.90;;;;;;5048257;28;20380;-83